createdAt,value
2023-04-12T00:01:04.997Z,17.00
2023-04-12T00:03:34.559Z,19.52
2023-04-12T00:06:03.607Z,19.55
2023-04-12T00:08:33.930Z,18.08
2023-04-12T00:11:02.853Z,16.00
2023-04-12T00:13:30.640Z,16.55
2023-04-12T00:15:57.670Z,17.20
2023-04-12T00:18:25.613Z,17.42
2023-04-12T00:20:53.225Z,16.48
2023-04-12T00:23:20.786Z,16.33
2023-04-12T00:25:48.103Z,17.85
2023-04-12T00:28:18.366Z,16.73
2023-04-12T00:30:46.155Z,16.42
2023-04-12T00:33:13.263Z,17.02
2023-04-12T00:35:40.406Z,16.88
2023-04-12T00:38:10.826Z,18.05
2023-04-12T00:40:42.778Z,16.52
2023-04-12T00:43:18.944Z,16.65
2023-04-12T00:45:47.785Z,16.08
2023-04-12T00:48:16.352Z,16.92
2023-04-12T00:50:44.963Z,16.85
2023-04-12T00:53:14.264Z,17.35
2023-04-12T00:55:45.028Z,17.52
2023-04-12T00:58:12.469Z,18.10
2023-04-12T01:00:40.280Z,16.98
2023-04-12T01:03:08.851Z,15.57
2023-04-12T01:05:44.654Z,16.73
2023-04-12T01:08:17.539Z,17.50
2023-04-12T01:11:08.954Z,17.55
2023-04-12T01:13:49.105Z,16.77
2023-04-12T01:16:28.466Z,18.45
2023-04-12T01:19:03.852Z,17.42
2023-04-12T01:21:53.301Z,18.20
2023-04-12T01:24:32.476Z,19.02
2023-04-12T01:27:02.038Z,17.75
2023-04-12T01:29:31.505Z,17.70
2023-04-12T01:34:29.289Z,17.67
2023-04-12T01:36:58.547Z,19.40
2023-04-12T01:39:26.534Z,18.30
2023-04-12T01:41:53.638Z,18.88
2023-04-12T01:44:20.708Z,19.25
2023-04-12T01:46:48.894Z,18.10
2023-04-12T01:49:17.777Z,19.25
2023-04-12T01:51:47.676Z,20.63
2023-04-12T01:54:38.953Z,18.92
2023-04-12T01:57:08.697Z,19.02
2023-04-12T01:59:40.074Z,18.27
2023-04-12T02:02:08.930Z,19.10
2023-04-12T02:04:37.318Z,18.35
2023-04-12T02:07:04.731Z,19.55
2023-04-12T02:09:37.996Z,18.98
2023-04-12T02:12:06.673Z,18.85
2023-04-12T02:14:33.928Z,18.83
2023-04-12T02:17:05.148Z,19.13
2023-04-12T02:19:33.133Z,19.65
2023-04-12T02:22:01.192Z,19.85
2023-04-12T02:24:29.645Z,20.40
2023-04-12T02:26:59.190Z,19.55
2023-04-12T02:29:27.566Z,17.23
2023-04-12T02:31:54.729Z,18.08
2023-04-12T02:34:24.458Z,18.13
2023-04-12T02:36:59.262Z,19.48
2023-04-12T02:39:26.307Z,20.40
2023-04-12T02:41:54.258Z,18.95
2023-04-12T02:44:21.480Z,19.00
2023-04-12T02:47:08.421Z,20.48
2023-04-12T02:49:36.469Z,20.73
2023-04-12T02:52:04.802Z,20.45
2023-04-12T02:54:39.688Z,21.95
2023-04-12T02:57:11.633Z,19.27
2023-04-12T02:59:43.348Z,21.05
2023-04-12T03:02:23.857Z,19.75
2023-04-12T03:04:55.018Z,18.80
2023-04-12T03:07:31.038Z,20.27
2023-04-12T03:09:58.548Z,20.27
2023-04-12T03:12:26.422Z,20.15
2023-04-12T03:15:08.477Z,19.60
2023-04-12T03:17:36.189Z,20.08
2023-04-12T03:20:07.888Z,19.58
2023-04-12T03:22:35.109Z,21.45
2023-04-12T03:25:04.085Z,20.90
2023-04-12T03:27:31.305Z,22.25
2023-04-12T03:29:59.366Z,21.05
2023-04-12T03:32:26.864Z,22.20
2023-04-12T03:34:55.606Z,22.25
2023-04-12T03:37:25.396Z,20.85
2023-04-12T03:39:55.697Z,21.27
2023-04-12T03:45:05.823Z,21.92
2023-04-12T03:47:33.401Z,21.90
2023-04-12T03:52:35.164Z,23.23
2023-04-12T03:55:07.900Z,24.02
2023-04-12T03:57:36.357Z,22.67
2023-04-12T04:00:05.060Z,23.33
2023-04-12T04:02:47.564Z,24.58
2023-04-12T04:05:16.875Z,24.35
2023-04-12T04:07:45.942Z,24.30
2023-04-12T04:10:14.804Z,23.75
2023-04-12T04:12:42.979Z,24.60
2023-04-12T04:15:15.181Z,24.30
2023-04-12T04:17:43.106Z,24.52
2023-04-12T04:20:13.762Z,23.48
2023-04-12T04:22:44.817Z,24.10
2023-04-12T04:25:14.394Z,25.27
2023-04-12T04:27:45.120Z,23.40
2023-04-12T04:30:15.402Z,25.17
2023-04-12T04:32:46.204Z,25.73
2023-04-12T04:35:16.881Z,25.95
2023-04-12T04:38:02.503Z,24.73
2023-04-12T04:40:29.666Z,23.23
2023-04-12T04:42:57.952Z,24.92
2023-04-12T04:45:27.712Z,24.73
2023-04-12T04:47:56.087Z,24.45
2023-04-12T04:50:24.582Z,24.75
2023-04-12T04:52:53.457Z,24.10
2023-04-12T04:55:27.607Z,24.65
2023-04-12T04:57:54.597Z,24.73
2023-04-12T05:00:21.954Z,24.75
2023-04-12T05:02:54.967Z,24.10
2023-04-12T05:05:28.598Z,25.45
2023-04-12T05:08:02.928Z,25.25
2023-04-12T05:10:32.574Z,24.60
2023-04-12T05:13:02.629Z,22.98
2023-04-12T05:15:32.004Z,22.13
2023-04-12T05:18:00.055Z,22.98
2023-04-12T05:20:27.698Z,23.75
2023-04-12T05:22:54.803Z,21.48
2023-04-12T05:25:22.077Z,23.60
2023-04-12T05:27:59.230Z,22.10
2023-04-12T05:30:26.333Z,21.92
2023-04-12T05:32:53.655Z,20.55
2023-04-12T05:35:21.647Z,22.08
2023-04-12T05:37:52.394Z,19.45
2023-04-12T05:40:19.459Z,20.42
2023-04-12T05:42:50.026Z,20.63
2023-04-12T05:45:17.406Z,19.48
2023-04-12T05:47:44.597Z,20.02
2023-04-12T05:50:11.747Z,18.42
2023-04-12T05:52:39.297Z,18.25
2023-04-12T05:55:08.286Z,15.88
2023-04-12T05:57:39.436Z,14.13
2023-04-12T06:00:13.316Z,14.07
2023-04-12T06:02:46.775Z,12.27
2023-04-12T06:05:17.095Z,12.93
2023-04-12T06:07:48.382Z,13.90
2023-04-12T06:10:17.583Z,13.07
2023-04-12T06:12:48.213Z,12.00
2023-04-12T06:15:15.608Z,12.50
2023-04-12T06:17:42.746Z,12.57
2023-04-12T06:20:10.484Z,12.38
2023-04-12T06:25:08.171Z,12.93
2023-04-12T06:27:35.410Z,12.57
2023-04-12T06:30:02.658Z,13.05
2023-04-12T06:32:32.830Z,12.38
2023-04-12T06:35:00.919Z,14.43
2023-04-12T06:37:28.021Z,14.45
2023-04-12T06:39:55.041Z,13.80
2023-04-12T06:42:22.101Z,14.27
2023-04-12T06:44:49.107Z,13.68
2023-04-12T06:47:16.511Z,14.15
2023-04-12T06:49:43.526Z,13.73
2023-04-12T06:52:10.651Z,13.93
2023-04-12T06:54:38.622Z,13.52
2023-04-12T06:57:11.003Z,11.52
2023-04-12T06:59:37.990Z,11.35
2023-04-12T07:02:05.167Z,11.00
2023-04-12T07:04:32.209Z,12.25
2023-04-12T07:06:59.369Z,11.82
2023-04-12T07:09:26.673Z,13.18
2023-04-12T07:11:53.707Z,10.90
2023-04-12T07:14:20.746Z,10.88
2023-04-12T07:16:47.787Z,11.38
2023-04-12T07:19:14.867Z,9.60
2023-04-12T07:21:41.982Z,9.60
2023-04-12T07:24:09.115Z,8.82
2023-04-12T07:26:36.213Z,8.48
2023-04-12T07:29:03.690Z,8.55
2023-04-12T07:31:30.991Z,8.77
2023-04-12T07:33:58.317Z,9.60
2023-04-12T07:36:27.277Z,10.52
2023-04-12T07:38:55.991Z,9.30
2023-04-12T07:41:23.517Z,11.15
2023-04-12T07:43:50.896Z,10.60
2023-04-12T07:46:17.968Z,11.50
2023-04-12T07:48:45.024Z,11.38
2023-04-12T07:51:12.195Z,11.38
2023-04-12T07:53:40.907Z,11.45
2023-04-12T07:56:08.288Z,12.43
2023-04-12T07:58:35.656Z,14.20
2023-04-12T08:01:02.642Z,13.38
2023-04-12T08:03:29.811Z,13.85
2023-04-12T08:05:57.036Z,12.45
2023-04-12T08:08:24.176Z,14.13
2023-04-12T08:10:52.304Z,13.68
2023-04-12T08:13:19.809Z,12.80
2023-04-12T08:15:47.881Z,12.27
2023-04-12T08:18:15.786Z,11.32
2023-04-12T08:20:44.381Z,11.55
2023-04-12T08:23:14.711Z,10.48
2023-04-12T08:25:41.915Z,10.30
2023-04-12T08:28:08.945Z,8.93
2023-04-12T08:30:36.865Z,8.88
2023-04-12T08:33:04.311Z,9.13
2023-04-12T08:35:31.916Z,8.65
2023-04-12T08:38:00.398Z,9.13
2023-04-12T08:40:27.402Z,8.05
2023-04-12T08:42:57.424Z,8.55
2023-04-12T08:45:29.246Z,9.63
2023-04-12T08:47:56.556Z,8.55
2023-04-12T08:50:25.499Z,8.48
2023-04-12T08:52:53.575Z,8.20
2023-04-12T08:55:20.597Z,8.10
2023-04-12T08:57:48.323Z,7.55
2023-04-12T09:00:16.569Z,8.00
2023-04-12T09:02:46.568Z,8.05
2023-04-12T09:05:14.662Z,7.03
2023-04-12T09:07:42.314Z,7.32
2023-04-12T09:10:09.540Z,7.53
2023-04-12T09:12:46.032Z,7.35
2023-04-12T09:15:15.714Z,7.88
2023-04-12T09:17:43.132Z,7.22
2023-04-12T09:20:12.892Z,7.35
2023-04-12T09:22:44.517Z,6.40
2023-04-12T09:25:12.697Z,7.53
2023-04-12T09:27:51.092Z,7.20
2023-04-12T09:30:19.713Z,7.20
2023-04-12T09:32:51.253Z,7.53
2023-04-12T09:35:18.853Z,6.93
2023-04-12T09:37:45.849Z,6.88
2023-04-12T09:40:13.112Z,7.00
2023-04-12T09:42:54.454Z,7.95
2023-04-12T09:45:26.445Z,11.10
2023-04-12T09:47:54.863Z,7.28
2023-04-12T09:50:24.006Z,7.45
2023-04-12T09:52:52.824Z,7.78
2023-04-12T09:55:21.982Z,7.35
2023-04-12T09:57:51.743Z,7.28
2023-04-12T10:00:20.253Z,7.32
2023-04-12T10:02:52.751Z,7.57
2023-04-12T10:05:23.271Z,7.25
2023-04-12T10:07:51.226Z,7.00
2023-04-12T10:10:19.758Z,6.60
2023-04-12T10:12:48.620Z,6.82
2023-04-12T10:15:21.258Z,6.80
2023-04-12T10:17:55.737Z,7.18
2023-04-12T10:20:26.154Z,7.15
2023-04-12T10:22:54.694Z,6.78
2023-04-12T10:25:26.015Z,5.85
2023-04-12T10:27:53.282Z,6.70
2023-04-12T10:30:28.734Z,6.70
2023-04-12T10:33:05.286Z,7.35
2023-04-12T10:36:04.121Z,7.47
2023-04-12T10:38:44.762Z,6.80
2023-04-12T10:41:20.236Z,6.00
2023-04-12T10:43:51.688Z,5.82
2023-04-12T10:46:39.347Z,6.47
2023-04-12T10:49:15.440Z,6.32
2023-04-12T10:52:13.091Z,6.60
2023-04-12T10:54:40.229Z,5.90
2023-04-12T10:57:41.506Z,6.38
2023-04-12T11:00:09.061Z,6.60
2023-04-12T11:02:56.432Z,6.65
2023-04-12T11:05:23.710Z,6.60
2023-04-12T11:08:07.234Z,6.55
2023-04-12T11:10:46.987Z,6.43
2023-04-12T11:13:22.306Z,6.72
2023-04-12T11:15:55.079Z,6.72
2023-04-12T11:18:22.544Z,6.90
2023-04-12T11:20:52.772Z,6.53
2023-04-12T11:23:19.938Z,7.60
2023-04-12T11:25:53.074Z,7.93
2023-04-12T11:28:28.505Z,7.05
2023-04-12T11:30:57.429Z,7.18
2023-04-12T11:33:35.220Z,7.00
2023-04-12T11:36:12.453Z,7.22
2023-04-12T11:38:40.064Z,6.72
2023-04-12T11:41:09.120Z,7.32
2023-04-12T11:43:38.906Z,7.03
2023-04-12T11:46:06.439Z,7.15
2023-04-12T11:48:34.035Z,6.82
2023-04-12T11:51:11.011Z,7.50
2023-04-12T11:53:38.988Z,7.88
2023-04-12T11:56:06.427Z,7.50
2023-04-12T11:58:33.441Z,7.20
2023-04-12T12:01:00.921Z,6.82
2023-04-12T12:03:28.834Z,7.25
2023-04-12T12:05:56.688Z,6.97
2023-04-12T12:08:24.753Z,7.30
2023-04-12T12:11:04.082Z,6.72
2023-04-12T12:13:48.248Z,6.85
2023-04-12T12:16:15.994Z,7.30
2023-04-12T12:18:44.874Z,7.28
2023-04-12T12:21:13.635Z,6.95
2023-04-12T12:23:43.455Z,6.97
2023-04-12T12:26:19.073Z,7.82
2023-04-12T12:28:54.670Z,7.10
2023-04-12T12:31:24.063Z,7.78
2023-04-12T12:33:57.116Z,8.18
2023-04-12T12:36:36.205Z,7.03
2023-04-12T12:39:10.724Z,9.77
2023-04-12T12:41:39.486Z,6.45
2023-04-12T12:44:08.063Z,6.63
2023-04-12T12:49:06.147Z,8.13
2023-04-12T12:51:33.344Z,6.70
2023-04-12T12:54:01.268Z,6.18
2023-04-12T12:56:28.462Z,6.80
2023-04-12T12:58:55.970Z,7.00
2023-04-12T13:01:23.110Z,6.97
2023-04-12T13:03:50.406Z,6.90
2023-04-12T13:06:17.462Z,6.88
2023-04-12T13:08:44.535Z,7.00
2023-04-12T13:11:11.557Z,6.88
2023-04-12T13:13:38.778Z,6.28
2023-04-12T13:16:06.256Z,6.22
2023-04-12T13:18:33.311Z,6.97
2023-04-12T13:21:00.679Z,7.18
2023-04-12T13:23:27.765Z,6.75
2023-04-12T13:25:54.800Z,7.05
2023-04-12T13:28:22.072Z,6.82
2023-04-12T13:30:49.084Z,6.22
2023-04-12T13:33:20.182Z,6.90
2023-04-12T13:35:48.871Z,7.03
2023-04-12T13:38:15.940Z,7.28
2023-04-12T13:40:42.942Z,7.30
2023-04-12T13:43:09.958Z,7.60
2023-04-12T13:45:36.968Z,6.80
2023-04-12T13:48:04.171Z,7.35
2023-04-12T13:50:31.282Z,7.35
2023-04-12T13:52:58.308Z,7.30
2023-04-12T13:55:25.524Z,7.80
2023-04-12T13:57:52.646Z,8.35
2023-04-12T14:00:20.312Z,7.35
2023-04-12T14:02:47.426Z,7.18
2023-04-12T14:05:15.089Z,7.95
2023-04-12T14:07:42.311Z,8.18
2023-04-12T14:10:10.002Z,7.75
2023-04-12T14:12:37.151Z,7.30
2023-04-12T14:15:05.962Z,7.82
2023-04-12T14:17:33.258Z,8.25
2023-04-12T14:20:00.602Z,7.57
2023-04-12T14:22:28.267Z,7.18
2023-04-12T14:24:55.568Z,8.55
2023-04-12T14:27:22.714Z,7.70
2023-04-12T14:29:49.797Z,7.53
2023-04-12T14:32:17.161Z,7.90
2023-04-12T14:34:44.376Z,7.20
2023-04-12T14:37:11.572Z,10.73
2023-04-12T14:39:38.608Z,8.82
2023-04-12T14:42:06.201Z,8.23
2023-04-12T14:44:33.274Z,8.63
2023-04-12T14:47:00.260Z,8.32
2023-04-12T14:49:28.528Z,8.77
2023-04-12T14:51:57.276Z,7.72
2023-04-12T14:54:24.274Z,8.48
2023-04-12T14:56:54.864Z,8.27
2023-04-12T14:59:23.545Z,8.27
2023-04-12T15:01:52.771Z,8.65
2023-04-12T15:04:20.339Z,7.95
2023-04-12T15:06:47.647Z,7.25
2023-04-12T15:09:17.824Z,6.95
2023-04-12T15:11:47.669Z,7.45
2023-04-12T15:14:20.652Z,7.10
2023-04-12T15:16:49.320Z,7.45
2023-04-12T15:19:21.074Z,7.13
2023-04-12T15:21:55.178Z,7.55
2023-04-12T15:24:22.682Z,7.55
2023-04-12T15:26:51.598Z,8.25
2023-04-12T15:29:21.324Z,7.22
2023-04-12T15:31:48.434Z,7.70
2023-04-12T15:34:15.620Z,7.13
2023-04-12T15:36:46.087Z,7.60
2023-04-12T15:39:15.121Z,7.45
2023-04-12T15:41:43.563Z,7.78
2023-04-12T15:44:14.843Z,7.88
2023-04-12T15:46:42.591Z,9.30
2023-04-12T15:49:10.828Z,7.80
2023-04-12T15:51:38.507Z,7.65
2023-04-12T15:54:06.312Z,8.18
2023-04-12T15:56:34.625Z,7.72
2023-04-12T15:59:01.917Z,8.13
2023-04-12T16:01:29.198Z,8.60
2023-04-12T16:03:56.529Z,8.40
2023-04-12T16:06:25.354Z,10.38
2023-04-12T16:08:54.881Z,7.85
2023-04-12T16:11:24.014Z,8.73
2023-04-12T16:13:51.781Z,9.55
2023-04-12T16:16:22.940Z,8.90
2023-04-12T16:18:51.638Z,9.38
2023-04-12T16:21:20.366Z,8.65
2023-04-12T16:23:48.795Z,9.23
2023-04-12T16:26:22.209Z,9.20
2023-04-12T16:28:50.566Z,9.27
2023-04-12T16:31:19.808Z,13.40
2023-04-12T16:33:51.050Z,9.60
2023-04-12T16:36:18.720Z,8.57
2023-04-12T16:38:45.898Z,9.13
2023-04-12T16:41:13.132Z,9.18
2023-04-12T16:43:41.053Z,10.10
2023-04-12T16:46:09.652Z,10.45
2023-04-12T16:48:41.271Z,10.63
2023-04-12T16:51:08.345Z,9.70
2023-04-12T16:53:36.751Z,11.02
2023-04-12T16:56:04.730Z,11.10
2023-04-12T16:58:33.136Z,10.65
2023-04-12T17:01:00.171Z,11.07
2023-04-12T17:03:27.722Z,10.18
2023-04-12T17:05:54.892Z,10.35
2023-04-12T17:08:22.803Z,9.85
2023-04-12T17:10:50.104Z,10.38
2023-04-12T17:13:18.753Z,9.25
2023-04-12T17:15:48.349Z,10.32
2023-04-12T17:18:15.594Z,11.18
2023-04-12T17:20:42.975Z,11.15
2023-04-12T17:23:10.435Z,11.65
2023-04-12T17:25:37.786Z,11.32
2023-04-12T17:28:05.320Z,11.65
2023-04-12T17:30:32.715Z,11.15
2023-04-12T17:33:01.798Z,11.02
2023-04-12T17:35:29.292Z,11.15
2023-04-12T17:37:56.548Z,11.68
2023-04-12T17:40:23.562Z,11.75
2023-04-12T17:42:50.672Z,11.07
2023-04-12T17:45:19.347Z,11.80
2023-04-12T17:47:46.458Z,12.77
2023-04-12T17:50:14.244Z,11.70
2023-04-12T17:52:42.472Z,10.50
2023-04-12T17:55:10.170Z,10.70
2023-04-12T17:57:37.231Z,10.45
2023-04-12T18:00:14.290Z,10.75
2023-04-12T18:02:43.636Z,9.52
2023-04-12T18:05:11.512Z,9.95
2023-04-12T18:07:40.205Z,10.75
2023-04-12T18:10:09.309Z,11.88
2023-04-12T18:12:38.810Z,9.77
2023-04-12T18:15:08.421Z,9.07
2023-04-12T18:17:35.979Z,9.73
2023-04-12T18:20:05.297Z,10.13
2023-04-12T18:22:32.583Z,10.02
2023-04-12T18:24:59.633Z,11.02
2023-04-12T18:27:26.637Z,9.40
2023-04-12T18:29:53.773Z,9.75
2023-04-12T18:32:21.426Z,9.80
2023-04-12T18:34:48.783Z,10.02
2023-04-12T18:37:16.092Z,10.40
2023-04-12T18:39:43.119Z,8.50
2023-04-12T18:42:10.182Z,8.73
2023-04-12T18:44:37.942Z,8.77
2023-04-12T18:47:05.061Z,8.50
2023-04-12T18:49:32.319Z,8.48
2023-04-12T18:51:59.518Z,8.73
2023-04-12T18:54:27.970Z,9.27
2023-04-12T18:56:55.143Z,9.30
2023-04-12T18:59:22.338Z,8.90
2023-04-12T19:01:49.475Z,8.70
2023-04-12T19:04:16.920Z,9.85
2023-04-12T19:06:45.371Z,10.25
2023-04-12T19:09:12.428Z,8.63
2023-04-12T19:11:39.803Z,9.00
2023-04-12T19:14:07.734Z,8.27
2023-04-12T19:16:35.697Z,7.95
2023-04-12T19:19:02.875Z,8.43
2023-04-12T19:21:29.919Z,10.50
2023-04-12T19:23:57.166Z,9.90
2023-04-12T19:26:24.821Z,8.93
2023-04-12T19:28:55.669Z,10.27
2023-04-12T19:31:23.914Z,8.70
2023-04-12T19:33:51.021Z,8.95
2023-04-12T19:36:18.004Z,10.32
2023-04-12T19:38:47.897Z,10.10
2023-04-12T19:41:18.014Z,10.27
2023-04-12T19:43:45.058Z,11.07
2023-04-12T19:46:12.197Z,9.20
2023-04-12T19:48:39.245Z,10.45
2023-04-12T19:51:07.440Z,10.68
2023-04-12T19:53:34.550Z,12.02
2023-04-12T19:56:04.210Z,10.38
2023-04-12T19:58:32.220Z,10.85
2023-04-12T20:01:02.292Z,10.43
2023-04-12T20:03:30.223Z,11.07
2023-04-12T20:05:59.129Z,11.18
2023-04-12T20:08:28.533Z,11.60
2023-04-12T20:10:56.391Z,12.23
2023-04-12T20:13:23.464Z,11.55
2023-04-12T20:15:51.234Z,11.93
2023-04-12T20:18:18.399Z,11.00
2023-04-12T20:20:45.776Z,11.63
2023-04-12T20:23:14.007Z,29.85
2023-04-12T20:25:41.957Z,13.35
2023-04-12T20:28:09.490Z,12.00
2023-04-12T20:30:37.050Z,12.73
2023-04-12T20:33:04.639Z,12.77
2023-04-12T20:35:32.204Z,12.35
2023-04-12T20:37:59.612Z,12.55
2023-04-12T20:40:29.988Z,12.27
2023-04-12T20:42:57.294Z,12.18
2023-04-12T20:45:24.339Z,12.98
2023-04-12T20:47:51.452Z,13.38
2023-04-12T20:50:22.674Z,12.38
2023-04-12T20:52:52.364Z,12.10
2023-04-12T20:55:19.774Z,12.50
2023-04-12T20:57:46.822Z,12.43
2023-04-12T21:00:23.775Z,11.48
2023-04-12T21:02:51.044Z,13.60
2023-04-12T21:05:18.167Z,12.85
2023-04-12T21:07:47.095Z,12.77
2023-04-12T21:10:15.013Z,14.57
2023-04-12T21:12:42.875Z,11.68
2023-04-12T21:15:11.927Z,12.75
2023-04-12T21:17:39.485Z,11.40
2023-04-12T21:20:13.849Z,11.60
2023-04-12T21:22:42.507Z,11.05
2023-04-12T21:25:15.127Z,12.05
2023-04-12T21:27:43.813Z,9.88
2023-04-12T21:30:11.599Z,10.57
2023-04-12T21:32:39.518Z,9.90
2023-04-12T21:35:07.501Z,10.43
2023-04-12T21:37:36.060Z,10.35
2023-04-12T21:40:09.942Z,10.23
2023-04-12T21:42:37.923Z,11.07
2023-04-12T21:45:13.187Z,10.68
2023-04-12T21:47:41.731Z,9.77
2023-04-12T21:50:10.428Z,9.60
2023-04-12T21:52:37.999Z,10.27
2023-04-12T21:55:05.901Z,10.70
2023-04-12T21:57:34.330Z,27.27
2023-04-12T22:00:02.430Z,10.15
2023-04-12T22:02:39.302Z,10.52
2023-04-12T22:05:07.052Z,10.25
2023-04-12T22:07:34.017Z,10.30
2023-04-12T22:10:02.034Z,10.30
2023-04-12T22:12:33.895Z,10.63
2023-04-12T22:15:00.956Z,10.10
2023-04-12T22:17:28.195Z,10.82
2023-04-12T22:19:56.773Z,9.75
2023-04-12T22:22:25.114Z,10.80
2023-04-12T22:24:52.823Z,10.32
2023-04-12T22:27:19.981Z,10.98
2023-04-12T22:29:47.928Z,10.52
2023-04-12T22:32:14.977Z,10.02
2023-04-12T22:34:42.258Z,11.25
2023-04-12T22:37:09.318Z,10.63
2023-04-12T22:39:36.636Z,12.07
2023-04-12T22:42:04.287Z,11.48
2023-04-12T22:44:38.149Z,10.65
2023-04-12T22:47:07.438Z,10.90
2023-04-12T22:49:44.687Z,10.98
2023-04-12T22:52:12.183Z,11.98
2023-04-12T22:54:40.315Z,10.75
2023-04-12T22:57:07.423Z,11.43
2023-04-12T22:59:35.018Z,10.70
2023-04-12T23:02:02.704Z,11.02
2023-04-12T23:04:29.790Z,11.13
2023-04-12T23:06:56.774Z,11.07
2023-04-12T23:09:23.887Z,10.63
2023-04-12T23:11:51.679Z,11.15
2023-04-12T23:14:18.778Z,11.30
2023-04-12T23:16:46.323Z,10.35
2023-04-12T23:19:14.887Z,10.73
2023-04-12T23:21:42.097Z,9.52
2023-04-12T23:24:12.121Z,9.68
2023-04-12T23:26:39.542Z,10.02
2023-04-12T23:29:06.631Z,9.80
2023-04-12T23:31:33.719Z,9.40
2023-04-12T23:34:06.109Z,12.02
2023-04-12T23:36:34.019Z,10.02
2023-04-12T23:39:02.228Z,10.60
2023-04-12T23:41:31.723Z,10.70
2023-04-12T23:43:59.545Z,10.40
2023-04-12T23:46:26.960Z,9.80
2023-04-12T23:48:54.070Z,10.05
2023-04-12T23:51:22.122Z,10.80
2023-04-12T23:53:49.170Z,11.13
2023-04-12T23:56:16.536Z,11.57
2023-04-12T23:58:43.575Z,12.02
